North Sunderland, United Kingdom
Current Conditions -  °F | °C
As of 7:50 PM on Tuesday 21 Oct 2014 (Local Time) from EGQM Reporting Station
Clear Clear  
Wind Chill: 37°   Ceiling: Unl
Heat Index: 45°   Visibility: 6mi
Dew Point: 32°   Wind: 16mph
Humidity: 61%   Direction: 290°WNW
Pressure: 29.8"   Gusts: NA
Location:  55.58°N, 1.66°W
Report Text: EGQM 211850Z AUTO 29014KT 9999 NCD 07/00 Q1009
Loading
Personal Weather Stations






























Interactive Weather Map
Tropical Storm Tracking
New forecast layout! Learn more

10-Day Weather Forecast

Advertisements
Track Severe Weather on mobile